Time;durP1;ratioP1;P1;durP2;ratioP2;P2;SDS_P1;SDS_P2;PMS_P1;PMS_P2;Temp;Humidity;BMP_temperature;BMP_pressure;BME280_temperature;BME280_humidity;BME280_pressure;Samples;Min_cycle;Max_cycle;Signal;HPM_P1;HPM_P2
2021/12/14 00:01:11;;;;;;;49.35;25.90;;;26.10;99.90;;;;;;5013571;28;20491;-64
2021/12/14 00:03:42;;;;;;;93.55;46.63;;;26.20;99.90;;;;;;5013699;28;20487;-64
2021/12/14 00:06:10;;;;;;;43.05;24.48;;;26.30;99.90;;;;;;5013424;28;20026;-64
2021/12/14 00:08:48;;;;;;;40.15;23.00;;;26.10;99.90;;;;;;5013715;28;20061;-64
2021/12/14 00:16:33;;;;;;;37.35;21.85;;;26.10;99.90;;;;;;5012620;28;20503;-64
2021/12/14 00:19:01;;;;;;;36.30;21.80;;;26.10;99.90;;;;;;5013711;28;20030;-63
2021/12/14 00:21:30;;;;;;;43.58;20.15;;;26.10;99.90;;;;;;5013476;28;20429;-64
2021/12/14 00:24:07;;;;;;;50.97;20.33;;;26.10;99.90;;;;;;5013641;28;20482;-64
2021/12/14 00:26:42;;;;;;;33.80;21.25;;;26.10;99.90;;;;;;5013649;28;20033;-63
2021/12/14 00:29:25;;;;;;;104.13;67.38;;;26.10;99.90;;;;;;5013480;28;20038;-64
2021/12/14 00:31:55;;;;;;;61.40;33.85;;;26.20;99.90;;;;;;5012788;28;20062;-64
2021/12/14 00:34:34;;;;;;;39.20;23.27;;;26.30;99.90;;;;;;5013506;28;20026;-64
2021/12/14 00:37:01;;;;;;;37.25;23.60;;;26.30;99.90;;;;;;5013561;28;20510;-64
2021/12/14 00:39:28;;;;;;;39.90;23.33;;;26.30;99.90;;;;;;5013570;28;20065;-64
2021/12/14 00:41:55;;;;;;;42.08;22.10;;;26.40;99.90;;;;;;5013075;28;20033;-64
2021/12/14 00:44:22;;;;;;;72.30;24.92;;;26.50;99.90;;;;;;5013491;28;20034;-64
2021/12/14 00:46:50;;;;;;;40.92;23.30;;;26.50;99.90;;;;;;5013701;28;20034;-64
2021/12/14 00:49:17;;;;;;;52.25;31.48;;;26.50;99.90;;;;;;5017049;28;20443;-63
2021/12/14 00:51:44;;;;;;;39.92;24.42;;;26.50;99.90;;;;;;5017236;28;20026;-63
2021/12/14 00:54:15;;;;;;;34.05;20.58;;;26.50;99.90;;;;;;5017033;28;20025;-63
2021/12/14 00:56:42;;;;;;;46.15;24.50;;;26.60;99.90;;;;;;5017268;28;20386;-64
2021/12/14 00:59:12;;;;;;;80.93;52.17;;;26.60;99.90;;;;;;5017453;28;20026;-64
2021/12/14 01:01:48;;;;;;;39.47;21.63;;;26.70;99.90;;;;;;5017461;28;20038;-65
2021/12/14 01:04:23;;;;;;;38.70;23.40;;;26.80;99.90;;;;;;5017088;28;20108;-65
2021/12/14 01:06:51;;;;;;;39.30;21.45;;;26.90;99.90;;;;;;5017102;28;20474;-64
2021/12/14 01:09:24;;;;;;;35.08;20.33;;;26.90;99.90;;;;;;5016927;28;20033;-64
2021/12/14 01:11:51;;;;;;;39.10;20.83;;;27.00;99.90;;;;;;5017020;28;20054;-64
2021/12/14 01:14:32;;;;;;;43.03;21.33;;;27.10;99.90;;;;;;5016772;28;20022;-63
2021/12/14 01:17:11;;;;;;;90.75;70.85;;;27.10;99.90;;;;;;5031369;28;20050;-65
2021/12/14 01:19:51;;;;;;;38.65;21.48;;;27.10;99.90;;;;;;5013677;28;20037;-63
2021/12/14 01:25:17;;;;;;;49.88;25.92;;;27.10;99.90;;;;;;5021528;28;20486;-64
2021/12/14 01:27:58;;;;;;;43.67;27.65;;;27.20;99.90;;;;;;5002448;28;20055;-64
2021/12/14 01:30:37;;;;;;;60.38;37.88;;;27.30;99.90;;;;;;5016041;28;20040;-65
2021/12/14 01:33:08;;;;;;;47.63;24.50;;;27.30;99.90;;;;;;5014856;28;20030;-64
2021/12/14 01:35:41;;;;;;;44.00;22.55;;;27.30;99.90;;;;;;5013230;28;20387;-65
2021/12/14 01:43:12;;;;;;;36.28;21.42;;;27.60;99.90;;;;;;5015579;28;20045;-64
2021/12/14 01:45:39;;;;;;;35.20;20.55;;;27.60;99.90;;;;;;5016418;28;20033;-65
2021/12/14 01:48:06;;;;;;;38.90;21.20;;;27.70;99.90;;;;;;5015572;28;20025;-64
2021/12/14 01:50:41;;;;;;;41.45;20.48;;;27.80;99.90;;;;;;5014556;28;20117;-63
2021/12/14 01:53:08;;;;;;;35.85;21.52;;;27.80;99.90;;;;;;5015722;28;20033;-64
2021/12/14 01:55:37;;;;;;;37.97;19.95;;;27.90;99.90;;;;;;5015600;28;20033;-64
2021/12/14 01:58:07;;;;;;;37.47;21.65;;;27.90;99.90;;;;;;5015744;28;20033;-64
2021/12/14 02:00:42;;;;;;;34.17;21.05;;;27.90;99.90;;;;;;5016314;28;20030;-63
2021/12/14 02:03:11;;;;;;;47.05;23.63;;;27.90;99.90;;;;;;5016479;28;20108;-67
2021/12/14 02:05:46;;;;;;;33.40;19.30;;;27.90;99.90;;;;;;5016397;28;20038;-64
2021/12/14 02:08:15;;;;;;;40.22;17.90;;;28.00;99.90;;;;;;5032220;28;20044;-64
2021/12/14 02:10:42;;;;;;;382.85;324.45;;;28.10;99.90;;;;;;5023079;28;20033;-65
2021/12/14 02:13:09;;;;;;;44.10;21.08;;;28.20;99.90;;;;;;5015199;28;20026;-63
2021/12/14 02:15:43;;;;;;;32.88;18.17;;;28.30;99.90;;;;;;5014479;28;20515;-64
2021/12/14 02:18:15;;;;;;;85.15;22.52;;;28.20;99.90;;;;;;5015262;28;20032;-64
2021/12/14 02:20:48;;;;;;;48.95;27.60;;;28.30;99.90;;;;;;5005979;28;20038;-62
2021/12/14 02:23:15;;;;;;;51.25;29.48;;;28.30;99.90;;;;;;5015409;28;20077;-64
2021/12/14 02:25:42;;;;;;;40.17;20.90;;;28.40;99.90;;;;;;5015599;28;20034;-64
2021/12/14 02:28:13;;;;;;;47.15;20.85;;;28.40;99.90;;;;;;5014875;28;20021;-63
2021/12/14 02:30:44;;;;;;;34.53;18.83;;;28.40;99.90;;;;;;5014870;28;20022;-63
2021/12/14 02:33:19;;;;;;;47.20;18.57;;;28.40;99.90;;;;;;5015373;28;20026;-63
2021/12/14 02:35:48;;;;;;;38.55;17.90;;;28.50;99.90;;;;;;5011400;28;20072;-63
2021/12/14 02:38:17;;;;;;;97.05;51.30;;;28.50;99.90;;;;;;5005462;28;20034;-62
2021/12/14 02:40:56;;;;;;;91.03;30.25;;;28.60;99.90;;;;;;5011373;28;20566;-63
2021/12/14 02:43:28;;;;;;;35.72;16.23;;;28.60;99.90;;;;;;5015227;28;20116;-63
2021/12/14 02:46:22;;;;;;;537.42;465.55;;;28.70;99.90;;;;;;5005972;28;20026;-63
2021/12/14 02:48:55;;;;;;;65.20;27.95;;;28.70;99.90;;;;;;4995518;28;20031;-63
2021/12/14 02:51:31;;;;;;;35.00;16.17;;;28.80;99.90;;;;;;5007732;28;20210;-63
2021/12/14 02:54:06;;;;;;;33.83;18.08;;;28.90;99.90;;;;;;5012523;28;20030;-63
2021/12/14 02:56:37;;;;;;;133.45;90.72;;;29.00;99.90;;;;;;5015267;28;20045;-64
2021/12/14 02:59:09;;;;;;;65.93;37.28;;;29.00;99.90;;;;;;5012767;28;20037;-64
2021/12/14 03:01:38;;;;;;;106.32;61.83;;;29.10;99.90;;;;;;5015032;28;20034;-64
2021/12/14 03:04:07;;;;;;;44.33;22.60;;;29.10;99.90;;;;;;5012563;28;20029;-65
2021/12/14 03:06:48;;;;;;;440.42;223.48;;;29.10;99.90;;;;;;4999885;28;20327;-64
2021/12/14 03:09:54;;;;;;;49.22;24.55;;;29.20;99.90;;;;;;5006690;28;20030;-63
2021/12/14 03:12:16;;;;;;;37.30;17.35;;;29.40;99.90;;;;;;5005157;28;20025;-65
2021/12/14 03:15:00;;;;;;;26.30;17.23;;;29.30;99.90;;;;;;5005915;28;20390;-63
2021/12/14 03:17:27;;;;;;;31.58;16.65;;;29.20;99.90;;;;;;5008333;28;20029;-63
2021/12/14 03:20:11;;;;;;;40.42;16.65;;;29.10;99.90;;;;;;5005451;28;20030;-64
2021/12/14 03:22:51;;;;;;;34.03;16.30;;;29.20;99.90;;;;;;5007375;28;20084;-63
2021/12/14 03:25:20;;;;;;;38.55;17.73;;;29.20;99.90;;;;;;5008154;28;20061;-64
2021/12/14 03:27:49;;;;;;;48.75;22.33;;;29.20;99.90;;;;;;5010061;28;20120;-64
2021/12/14 03:30:26;;;;;;;49.35;22.00;;;29.30;99.90;;;;;;5003346;28;20068;-64
2021/12/14 03:32:56;;;;;;;44.00;20.58;;;29.30;99.90;;;;;;5005764;28;20486;-64
2021/12/14 03:35:43;;;;;;;33.55;17.77;;;29.30;99.90;;;;;;5004937;28;20937;-64
2021/12/14 03:38:28;;;;;;;67.38;31.50;;;29.30;99.90;;;;;;5007560;28;20037;-65
2021/12/14 03:41:06;;;;;;;562.42;433.13;;;29.40;99.90;;;;;;5007671;28;20036;-64
2021/12/14 03:43:34;;;;;;;43.65;22.70;;;29.60;99.90;;;;;;5004604;28;20028;-64
2021/12/14 03:46:01;;;;;;;321.77;254.45;;;29.70;99.90;;;;;;5013046;28;20026;-64
2021/12/14 03:48:30;;;;;;;335.55;219.70;;;29.80;99.90;;;;;;5013586;28;20123;-63
2021/12/14 03:50:57;;;;;;;516.78;393.17;;;29.80;99.90;;;;;;5012600;28;20387;-65
2021/12/14 03:53:24;;;;;;;121.65;67.95;;;29.90;99.90;;;;;;5001267;28;20022;-64
2021/12/14 03:55:56;;;;;;;401.10;250.02;;;29.90;99.90;;;;;;5004321;28;20026;-64
2021/12/14 03:58:25;;;;;;;;;;;30.00;99.90;;;;;;5008231;28;20475;-64
2021/12/14 04:01:00;;;;;;;81.60;49.13;;;30.20;99.90;;;;;;5006372;28;19996;-65
2021/12/14 04:03:28;;;;;;;91.70;55.78;;;30.20;99.90;;;;;;5004040;28;20502;-65
2021/12/14 04:05:55;;;;;;;36.67;20.98;;;30.10;99.90;;;;;;5008816;28;20030;-65
2021/12/14 04:08:24;;;;;;;73.68;45.08;;;30.00;99.90;;;;;;5012047;28;20084;-64
2021/12/14 04:10:51;;;;;;;262.77;198.65;;;30.00;99.90;;;;;;4997478;28;20033;-64
2021/12/14 04:13:23;;;;;;;356.38;277.55;;;30.00;99.90;;;;;;4995883;28;20034;-64
2021/12/14 04:15:51;;;;;;;99.15;71.13;;;30.00;99.90;;;;;;5004461;28;20046;-65
2021/12/14 04:18:18;;;;;;;48.60;26.45;;;30.00;99.90;;;;;;5005710;28;20033;-64
2021/12/14 04:20:46;;;;;;;49.38;22.27;;;30.00;99.90;;;;;;5005083;28;20026;-65
2021/12/14 04:23:23;;;;;;;240.02;187.82;;;29.90;99.90;;;;;;5006922;28;20030;-63
2021/12/14 04:25:52;;;;;;;76.03;23.80;;;29.90;99.90;;;;;;5008777;28;20051;-62
2021/12/14 04:28:22;;;;;;;147.85;107.03;;;29.90;99.90;;;;;;5003129;28;20026;-63
2021/12/14 04:30:49;;;;;;;66.00;31.50;;;29.90;99.90;;;;;;5006666;28;20384;-64
2021/12/14 04:33:21;;;;;;;561.17;409.77;;;29.90;99.90;;;;;;5005962;28;20026;-63
2021/12/14 04:35:50;;;;;;;47.90;19.70;;;30.10;99.90;;;;;;5009890;28;20026;-63
2021/12/14 04:38:26;;;;;;;42.92;18.05;;;30.10;99.90;;;;;;5006895;28;20030;-64
2021/12/14 04:54:12;;;;;;;50.55;20.75;;;30.30;99.90;;;;;;5009022;28;20038;-65
2021/12/14 04:56:45;;;;;;;144.02;70.30;;;30.20;99.90;;;;;;5002849;28;20014;-69
2021/12/14 04:59:23;;;;;;;150.40;79.95;;;30.20;99.90;;;;;;5000942;28;20085;-65
2021/12/14 05:01:52;;;;;;;38.70;19.75;;;30.30;99.90;;;;;;5011373;28;20430;-67
2021/12/14 05:04:23;;;;;;;34.17;17.85;;;30.20;99.90;;;;;;5012944;28;20033;-66
2021/12/14 05:06:54;;;;;;;43.92;21.77;;;30.20;99.90;;;;;;5014849;28;20029;-66
2021/12/14 05:09:27;;;;;;;42.60;19.90;;;30.10;99.90;;;;;;5012416;28;20041;-66
2021/12/14 05:12:06;;;;;;;32.08;16.02;;;30.10;99.90;;;;;;5014025;28;20033;-67
2021/12/14 05:14:35;;;;;;;36.20;16.85;;;30.00;99.90;;;;;;5008899;28;20072;-65
2021/12/14 05:17:06;;;;;;;92.50;57.58;;;30.00;99.90;;;;;;5016419;28;20070;-65
2021/12/14 05:19:36;;;;;;;145.20;87.47;;;29.90;99.90;;;;;;5013540;28;20026;-64
2021/12/14 05:22:08;;;;;;;25.60;14.70;;;29.90;99.90;;;;;;5017265;28;20475;-64
2021/12/14 05:24:39;;;;;;;37.55;14.48;;;29.90;99.90;;;;;;5015838;28;20048;-64
2021/12/14 05:27:09;;;;;;;38.03;14.68;;;29.90;99.90;;;;;;4997270;28;20081;-64
2021/12/14 05:29:39;;;;;;;29.88;14.73;;;30.10;99.90;;;;;;4997727;28;20026;-65
2021/12/14 05:32:07;;;;;;;34.45;18.20;;;30.10;99.90;;;;;;4997342;28;20057;-65
2021/12/14 05:34:36;;;;;;;38.75;20.80;;;30.10;99.30;;;;;;5001786;28;20077;-66
2021/12/14 05:37:04;;;;;;;41.15;14.40;;;30.10;99.90;;;;;;5008285;28;20038;-67
2021/12/14 05:44:35;;;;;;;39.60;17.00;;;29.90;99.90;;;;;;5011748;28;20087;-64
2021/12/14 05:47:06;;;;;;;28.35;15.73;;;30.00;99.90;;;;;;5014147;28;20057;-65
2021/12/14 05:49:35;;;;;;;35.63;14.68;;;30.00;99.90;;;;;;5007958;28;20076;-66
2021/12/14 05:52:08;;;;;;;32.72;13.75;;;30.00;99.90;;;;;;5008907;28;20018;-66
2021/12/14 05:54:35;;;;;;;27.80;12.88;;;29.90;99.90;;;;;;5011758;28;20026;-66
2021/12/14 05:57:06;;;;;;;27.55;14.60;;;29.80;99.90;;;;;;5010557;28;20030;-66
2021/12/14 05:59:34;;;;;;;29.70;15.13;;;29.80;99.90;;;;;;5010550;28;20041;-66
2021/12/14 06:02:05;;;;;;;43.33;21.52;;;29.80;99.90;;;;;;5003911;28;20502;-67
2021/12/14 06:04:37;;;;;;;46.83;24.70;;;29.90;99.90;;;;;;5009086;28;20030;-65
2021/12/14 06:07:05;;;;;;;28.42;15.23;;;30.00;99.90;;;;;;5006661;28;20076;-67
2021/12/14 06:09:37;;;;;;;30.70;15.68;;;30.00;99.90;;;;;;5010688;28;20037;-66
2021/12/14 06:12:09;;;;;;;31.98;15.38;;;30.10;99.90;;;;;;5005773;28;20029;-66
2021/12/14 06:14:42;;;;;;;;;;;30.10;99.90;;;;;;5007981;28;20034;-66
2021/12/14 06:17:11;;;;;;;32.22;17.40;;;30.20;99.90;;;;;;5006049;28;19917;-63
2021/12/14 06:19:41;;;;;;;31.83;16.77;;;30.30;99.90;;;;;;5014005;28;20068;-65
2021/12/14 06:22:14;;;;;;;111.45;64.60;;;30.30;99.90;;;;;;5003568;28;20026;-64
2021/12/14 06:24:46;;;;;;;46.17;24.20;;;30.50;99.90;;;;;;5004907;28;20478;-64
2021/12/14 06:27:17;;;;;;;43.33;23.17;;;30.60;99.90;;;;;;5011744;28;20087;-63
2021/12/14 06:29:47;;;;;;;103.13;54.13;;;30.50;98.40;;;;;;4998596;28;20030;-64
2021/12/14 06:32:16;;;;;;;83.20;40.22;;;30.40;99.00;;;;;;5011432;28;20022;-64
2021/12/14 06:34:46;;;;;;;32.42;16.73;;;30.40;99.00;;;;;;5007244;28;20036;-64
2021/12/14 06:37:30;;;;;;;91.55;17.27;;;30.50;98.30;;;;;;5006371;28;20033;-64
2021/12/14 06:40:04;;;;;;;63.88;22.90;;;30.50;97.60;;;;;;5012543;28;20030;-64
2021/12/14 06:42:34;;;;;;;34.63;13.05;;;30.50;97.50;;;;;;5006105;28;20029;-64
2021/12/14 06:45:13;;;;;;;46.97;19.83;;;30.60;94.80;;;;;;4997977;28;20527;-64
2021/12/14 06:47:41;;;;;;;24.38;13.43;;;30.60;96.60;;;;;;5012696;28;20117;-65
2021/12/14 06:50:12;;;;;;;32.58;16.10;;;30.60;96.10;;;;;;5014904;28;20029;-64
2021/12/14 06:52:40;;;;;;;34.33;13.50;;;30.70;95.60;;;;;;5015012;28;20076;-65
2021/12/14 06:55:07;;;;;;;51.88;21.05;;;30.80;94.30;;;;;;5013848;28;20120;-66
2021/12/14 06:57:34;;;;;;;28.73;14.80;;;30.90;95.20;;;;;;5006576;28;20026;-64
2021/12/14 07:00:04;;;;;;;98.50;59.72;;;31.00;94.90;;;;;;5011504;28;20037;-64
2021/12/14 07:02:30;;;;;;;27.60;13.50;;;31.10;95.50;;;;;;5005094;28;20446;-64
2021/12/14 07:04:57;;;;;;;31.75;11.48;;;31.20;94.70;;;;;;5009137;28;20092;-63
2021/12/14 07:07:27;;;;;;;21.42;10.45;;;31.10;92.60;;;;;;5014219;28;20076;-63
2021/12/14 07:09:57;;;;;;;336.27;221.82;;;30.90;92.30;;;;;;5013986;28;20030;-63
2021/12/14 07:12:32;;;;;;;121.57;71.60;;;30.80;93.50;;;;;;5014085;28;20022;-64
2021/12/14 07:15:02;;;;;;;24.58;16.27;;;30.90;93.30;;;;;;5013976;28;20105;-64
2021/12/14 07:17:37;;;;;;;29.13;12.30;;;30.90;92.00;;;;;;5011241;28;20498;-64
2021/12/14 07:20:21;;;;;;;33.53;14.65;;;30.90;92.50;;;;;;5011861;28;20036;-64
2021/12/14 07:22:50;;;;;;;53.30;20.08;;;30.90;92.40;;;;;;5019844;28;20070;-64
2021/12/14 07:25:22;;;;;;;39.60;24.23;;;31.00;92.80;;;;;;4999620;28;20041;-64
2021/12/14 07:27:53;;;;;;;39.15;20.67;;;31.10;93.40;;;;;;4994858;28;20033;-64
2021/12/14 07:30:29;;;;;;;34.92;16.45;;;31.20;93.20;;;;;;5011369;28;20111;-63
2021/12/14 07:32:59;;;;;;;43.55;21.00;;;31.20;91.70;;;;;;5008475;28;20050;-64
2021/12/14 07:35:31;;;;;;;65.88;41.47;;;31.20;92.60;;;;;;4995648;28;20031;-64
2021/12/14 07:38:28;;;;;;;48.67;28.77;;;31.20;92.50;;;;;;5011270;28;20030;-64
2021/12/14 07:41:12;;;;;;;29.63;14.43;;;31.30;92.60;;;;;;5013837;28;20562;-63
2021/12/14 07:43:46;;;;;;;130.70;95.13;;;31.30;91.70;;;;;;5013156;28;20525;-64
2021/12/14 07:46:18;;;;;;;21.67;12.10;;;31.20;92.00;;;;;;5011061;28;20029;-64
2021/12/14 07:48:50;;;;;;;35.53;20.42;;;31.10;92.20;;;;;;5014037;28;20056;-64
2021/12/14 07:51:20;;;;;;;28.55;13.07;;;31.20;92.40;;;;;;5014051;28;20057;-64
2021/12/14 07:53:49;;;;;;;26.50;13.10;;;31.10;92.00;;;;;;5014099;28;20033;-64
2021/12/14 07:56:29;;;;;;;27.25;12.77;;;31.10;91.20;;;;;;5013834;28;20051;-64
2021/12/14 07:58:58;;;;;;;24.77;13.07;;;31.20;92.10;;;;;;5008175;28;20414;-65
2021/12/14 08:01:25;;;;;;;40.08;21.60;;;31.10;91.40;;;;;;5006378;28;20058;-64
2021/12/14 08:03:58;;;;;;;34.17;12.98;;;31.20;91.50;;;;;;5012073;28;20045;-65
2021/12/14 08:06:25;;;;;;;32.42;11.55;;;31.10;91.00;;;;;;5005404;28;20022;-64
2021/12/14 08:08:55;;;;;;;31.33;13.73;;;31.10;90.50;;;;;;5003114;28;20029;-64
2021/12/14 08:11:30;;;;;;;33.35;16.98;;;31.20;91.00;;;;;;5005870;28;20038;-65
2021/12/14 08:14:05;;;;;;;24.90;11.02;;;31.40;91.20;;;;;;5004629;28;20574;-65
2021/12/14 08:16:39;;;;;;;25.90;10.68;;;31.50;90.50;;;;;;5006436;28;20046;-64
2021/12/14 08:19:06;;;;;;;29.67;12.68;;;31.50;90.10;;;;;;5005507;28;20103;-65
2021/12/14 08:21:33;;;;;;;30.85;12.07;;;31.40;92.00;;;;;;5004713;28;20049;-64
2021/12/14 08:24:04;;;;;;;18.77;11.15;;;31.50;91.20;;;;;;5004606;28;20029;-64
2021/12/14 08:26:33;;;;;;;37.07;13.03;;;31.60;90.90;;;;;;5005241;28;20483;-64
2021/12/14 08:29:15;;;;;;;29.35;14.93;;;31.60;90.00;;;;;;5004081;28;20057;-64
2021/12/14 08:31:47;;;;;;;22.03;11.27;;;31.60;90.90;;;;;;5002524;28;20547;-64
2021/12/14 08:34:21;;;;;;;25.33;12.25;;;31.70;88.80;;;;;;5002835;28;20025;-64
2021/12/14 08:36:53;;;;;;;27.15;13.55;;;31.70;88.30;;;;;;5003470;28;20054;-64
2021/12/14 08:39:27;;;;;;;28.45;11.68;;;31.70;88.70;;;;;;5002968;28;20033;-64
2021/12/14 08:42:11;;;;;;;29.95;15.30;;;31.60;88.00;;;;;;5005276;28;20037;-64
2021/12/14 08:44:41;;;;;;;29.27;12.30;;;31.60;87.70;;;;;;5013274;28;20375;-65
2021/12/14 08:47:12;;;;;;;34.65;15.63;;;31.60;90.00;;;;;;5012949;28;20029;-65
2021/12/14 08:49:42;;;;;;;56.50;31.23;;;31.60;90.50;;;;;;5013388;28;20088;-65
2021/12/14 08:52:10;;;;;;;53.83;24.25;;;31.70;90.20;;;;;;5001892;28;20088;-65
2021/12/14 08:54:38;;;;;;;22.95;12.90;;;31.70;90.50;;;;;;5011852;28;20030;-65
2021/12/14 08:57:13;;;;;;;41.25;22.00;;;31.70;88.00;;;;;;5013652;28;20462;-64
2021/12/14 08:59:44;;;;;;;38.75;20.98;;;31.70;90.10;;;;;;5013044;28;20554;-64
2021/12/14 09:02:15;;;;;;;38.40;18.00;;;31.70;90.50;;;;;;5013693;28;20029;-65
2021/12/14 09:04:49;;;;;;;23.02;13.65;;;31.80;90.30;;;;;;5013268;28;20029;-65
2021/12/14 09:07:21;;;;;;;28.15;13.65;;;31.70;89.10;;;;;;5013341;28;20116;-65
2021/12/14 09:09:48;;;;;;;69.30;48.70;;;31.70;89.40;;;;;;5009274;28;20026;-64
2021/12/14 09:12:24;;;;;;;69.97;17.98;;;31.70;90.60;;;;;;5014247;28;20030;-64
2021/12/14 09:14:53;;;;;;;33.88;12.98;;;31.60;90.80;;;;;;5015695;28;20022;-64
2021/12/14 09:17:22;;;;;;;35.63;13.00;;;31.60;89.50;;;;;;5015194;28;20042;-63
2021/12/14 09:19:55;;;;;;;39.05;16.65;;;31.70;90.00;;;;;;5019781;28;20356;-64
2021/12/14 09:22:28;;;;;;;29.33;16.52;;;31.70;90.60;;;;;;5036904;28;20463;-63
2021/12/14 09:24:55;;;;;;;32.20;14.43;;;31.80;90.40;;;;;;4997093;28;20154;-64
2021/12/14 09:27:25;;;;;;;32.00;13.45;;;31.70;90.10;;;;;;5002143;28;20021;-64
2021/12/14 09:29:54;;;;;;;49.80;23.58;;;31.70;90.10;;;;;;5016860;28;20057;-64
2021/12/14 09:32:26;;;;;;;43.42;25.17;;;31.60;90.20;;;;;;5014479;28;20026;-63
2021/12/14 09:34:56;;;;;;;258.58;164.57;;;31.70;90.70;;;;;;5014047;28;20088;-64
2021/12/14 09:37:25;;;;;;;39.53;16.77;;;31.70;90.70;;;;;;5004854;28;20058;-64
2021/12/14 09:39:57;;;;;;;37.55;20.08;;;31.70;90.40;;;;;;5012657;28;20026;-64
2021/12/14 09:42:32;;;;;;;42.67;17.77;;;31.60;89.80;;;;;;5005992;28;20113;-63
2021/12/14 09:45:04;;;;;;;39.85;16.30;;;31.60;90.40;;;;;;5009463;28;20121;-64
2021/12/14 09:47:31;;;;;;;285.20;181.13;;;31.60;89.80;;;;;;5009600;28;20076;-63
2021/12/14 09:50:01;;;;;;;814.53;601.72;;;31.60;91.00;;;;;;5010322;28;20129;-63
2021/12/14 09:52:33;;;;;;;997.08;713.63;;;31.70;91.40;;;;;;5015856;28;20046;-63
2021/12/14 09:55:00;;;;;;;;;;;31.70;90.90;;;;;;5016206;28;20529;-63
2021/12/14 09:57:35;;;;;;;109.68;67.18;;;31.70;90.80;;;;;;5016246;28;19932;-64
2021/12/14 10:00:11;;;;;;;152.85;117.82;;;31.70;91.20;;;;;;5015891;28;20034;-63
2021/12/14 10:02:42;;;;;;;59.50;26.73;;;31.70;90.70;;;;;;5015744;28;20045;-62
2021/12/14 10:05:17;;;;;;;90.70;54.65;;;31.60;88.10;;;;;;5015678;28;20045;-63
2021/12/14 10:07:46;;;;;;;78.75;42.78;;;31.60;89.20;;;;;;5015424;28;20069;-63
2021/12/14 10:10:17;;;;;;;58.65;33.50;;;31.60;89.10;;;;;;5015565;28;20112;-64
2021/12/14 10:12:49;;;;;;;109.50;65.63;;;31.70;88.00;;;;;;5015703;28;20109;-63
2021/12/14 10:15:25;;;;;;;73.57;44.78;;;31.80;88.80;;;;;;5015247;28;20471;-62
2021/12/14 10:17:55;;;;;;;81.93;48.53;;;31.80;88.00;;;;;;5015446;28;20521;-63
2021/12/14 10:20:37;;;;;;;215.00;135.35;;;31.80;89.10;;;;;;5015062;28;20046;-64
2021/12/14 10:23:04;;;;;;;94.75;56.75;;;31.80;89.50;;;;;;5015786;28;20101;-63
2021/12/14 10:25:32;;;;;;;116.90;71.65;;;31.70;89.30;;;;;;5015283;28;20034;-63
2021/12/14 10:27:58;;;;;;;116.32;61.88;;;31.70;89.10;;;;;;5014137;28;20041;-63
2021/12/14 10:30:32;;;;;;;99.18;53.97;;;31.60;88.80;;;;;;5015172;28;20034;-63
2021/12/14 10:33:01;;;;;;;111.70;66.28;;;31.60;89.60;;;;;;5015279;28;20088;-64
2021/12/14 10:35:35;;;;;;;119.50;55.70;;;31.50;90.00;;;;;;5014126;28;20022;-64
2021/12/14 10:38:18;;;;;;;113.38;65.32;;;31.50;90.60;;;;;;5015075;28;20384;-63
2021/12/14 10:43:18;;;;;;;139.32;86.10;;;31.50;91.00;;;;;;5013844;28;19923;-62
2021/12/14 10:45:59;;;;;;;93.47;42.67;;;31.40;90.70;;;;;;5014889;28;20022;-64
2021/12/14 10:48:33;;;;;;;82.60;43.95;;;31.30;90.80;;;;;;5014909;28;20371;-62
2021/12/14 10:51:05;;;;;;;110.03;54.55;;;31.30;91.50;;;;;;5014187;28;20026;-63
2021/12/14 10:53:32;;;;;;;146.93;77.57;;;31.30;91.10;;;;;;5014706;28;20034;-62
2021/12/14 10:56:13;;;;;;;122.82;64.28;;;31.30;91.30;;;;;;5014307;28;20034;-64
2021/12/14 10:58:42;;;;;;;139.05;86.63;;;31.20;91.30;;;;;;5013852;28;20046;-62
2021/12/14 11:01:14;;;;;;;134.52;66.38;;;31.20;91.90;;;;;;5014535;28;20060;-62
2021/12/14 11:03:46;;;;;;;133.30;70.80;;;31.10;91.90;;;;;;5014409;28;20072;-64
2021/12/14 11:06:17;;;;;;;147.02;71.78;;;31.10;92.20;;;;;;5013753;28;20045;-62
2021/12/14 11:11:33;;;;;;;176.40;99.35;;;31.00;92.80;;;;;;5013045;28;20120;-62
2021/12/14 11:14:04;;;;;;;194.80;110.13;;;31.00;92.70;;;;;;5014559;28;20394;-63
2021/12/14 11:19:07;;;;;;;198.80;126.32;;;30.90;92.90;;;;;;5004944;28;20018;-65
2021/12/14 11:21:34;;;;;;;265.80;166.35;;;30.90;93.20;;;;;;5006901;28;20042;-65
2021/12/14 11:24:00;;;;;;;351.73;231.48;;;30.80;94.70;;;;;;5012165;28;20048;-64
2021/12/14 11:26:35;;;;;;;236.18;121.78;;;30.70;94.60;;;;;;5007056;28;20037;-64
2021/12/14 11:29:09;;;;;;;264.90;127.38;;;30.70;94.30;;;;;;5008961;28;20018;-64
2021/12/14 11:31:42;;;;;;;260.20;128.93;;;30.70;94.60;;;;;;5006817;28;20049;-64
2021/12/14 11:34:12;;;;;;;238.88;111.60;;;30.70;94.70;;;;;;5005033;28;20018;-62
2021/12/14 11:36:42;;;;;;;199.38;99.35;;;30.70;94.50;;;;;;5005579;28;20034;-61
2021/12/14 11:39:23;;;;;;;225.73;116.65;;;30.70;94.90;;;;;;5004867;28;20077;-63
2021/12/14 11:41:58;;;;;;;227.65;126.53;;;30.60;95.00;;;;;;5002110;28;20059;-64
2021/12/14 11:44:29;;;;;;;268.48;137.65;;;30.60;95.40;;;;;;5002355;28;20022;-64
2021/12/14 11:47:22;;;;;;;271.77;147.38;;;30.60;95.70;;;;;;5005627;28;20466;-64
2021/12/14 11:50:10;;;;;;;200.98;120.18;;;30.60;96.30;;;;;;5005061;28;20030;-64
2021/12/14 11:52:50;;;;;;;1065.75;722.55;;;30.60;96.30;;;;;;5004229;28;20038;-64
2021/12/14 11:55:26;;;;;;;151.02;88.70;;;30.60;96.30;;;;;;5006689;28;20021;-64
2021/12/14 11:58:00;;;;;;;253.73;155.95;;;30.50;96.00;;;;;;5002776;28;20038;-63
2021/12/14 12:00:27;;;;;;;138.45;82.80;;;30.50;96.30;;;;;;5007747;28;20474;-63
2021/12/14 12:02:54;;;;;;;203.27;119.82;;;30.50;96.50;;;;;;5004636;28;20424;-64
2021/12/14 12:05:30;;;;;;;366.92;219.52;;;30.40;96.80;;;;;;5001440;28;20034;-65
2021/12/14 12:10:48;;;;;;;209.25;118.70;;;30.30;99.30;;;;;;5013756;28;20034;-63
2021/12/14 12:13:15;;;;;;;157.35;90.93;;;30.30;99.50;;;;;;5013622;28;20030;-63
2021/12/14 12:15:46;;;;;;;129.48;73.10;;;30.30;99.80;;;;;;5013399;28;20057;-63
2021/12/14 12:18:13;;;;;;;132.57;78.85;;;30.20;99.90;;;;;;5013817;28;20061;-63
2021/12/14 12:20:48;;;;;;;111.00;70.38;;;30.10;99.90;;;;;;5012556;28;20022;-62
2021/12/14 12:23:19;;;;;;;152.00;81.60;;;30.10;99.90;;;;;;5013546;28;20041;-63
2021/12/14 12:25:57;;;;;;;150.80;89.43;;;30.10;99.90;;;;;;5012877;28;20033;-61
2021/12/14 12:28:26;;;;;;;161.77;97.10;;;30.10;99.90;;;;;;5008538;28;20034;-63
2021/12/14 12:31:06;;;;;;;145.90;99.88;;;30.10;99.90;;;;;;5002808;28;20030;-63
2021/12/14 12:33:43;;;;;;;129.40;83.45;;;30.00;99.90;;;;;;5005113;28;20037;-63
2021/12/14 12:36:12;;;;;;;53.55;29.80;;;30.00;99.90;;;;;;5004506;28;20161;-64
2021/12/14 12:38:53;;;;;;;100.30;52.45;;;29.90;99.90;;;;;;5004347;28;20418;-63
2021/12/14 12:41:28;;;;;;;68.50;38.65;;;29.90;99.90;;;;;;5004872;28;20491;-63
2021/12/14 12:44:09;;;;;;;70.97;35.10;;;29.80;99.90;;;;;;5003180;28;20499;-64
2021/12/14 12:46:42;;;;;;;56.13;36.00;;;29.80;99.90;;;;;;4997818;28;20422;-64
2021/12/14 12:49:11;;;;;;;52.60;32.17;;;29.90;99.90;;;;;;5014191;28;20457;-66
2021/12/14 12:51:49;;;;;;;42.75;22.17;;;29.90;99.90;;;;;;5017244;28;20431;-63
2021/12/14 12:54:27;;;;;;;45.20;22.67;;;29.80;99.90;;;;;;5016645;28;20070;-64
2021/12/14 12:57:09;;;;;;;44.83;22.15;;;29.80;99.90;;;;;;5014078;28;20033;-62
2021/12/14 12:59:50;;;;;;;41.75;23.67;;;29.70;99.90;;;;;;5012502;28;20033;-65
2021/12/14 13:02:29;;;;;;;39.28;19.27;;;29.70;99.90;;;;;;5014946;28;20045;-64
2021/12/14 13:05:02;;;;;;;33.33;18.75;;;29.70;99.90;;;;;;5007299;28;20128;-65
2021/12/14 13:07:30;;;;;;;30.67;17.02;;;29.70;99.90;;;;;;5009756;28;20030;-64
2021/12/14 13:10:09;;;;;;;29.70;16.15;;;29.70;99.90;;;;;;5006288;28;20034;-64
2021/12/14 13:12:48;;;;;;;27.70;16.23;;;29.60;99.90;;;;;;5005275;28;20058;-64
2021/12/14 13:15:37;;;;;;;39.78;16.63;;;29.50;99.90;;;;;;5000568;28;20094;-62
2021/12/14 13:18:22;;;;;;;53.83;24.67;;;29.50;99.90;;;;;;5005525;28;20025;-63
2021/12/14 13:20:58;;;;;;;29.77;18.05;;;29.50;99.90;;;;;;5010795;28;20073;-63
2021/12/14 13:23:44;;;;;;;110.68;52.58;;;29.50;99.90;;;;;;5006928;28;20377;-64
2021/12/14 13:26:24;;;;;;;43.13;21.48;;;29.40;99.90;;;;;;5013976;28;20100;-64
2021/12/14 13:28:55;;;;;;;35.60;19.80;;;29.40;99.90;;;;;;5007416;28;20115;-63
2021/12/14 13:31:37;;;;;;;69.80;36.80;;;29.20;99.90;;;;;;5016849;28;20368;-63